Time;durP1;ratioP1;P1;durP2;ratioP2;P2;SDS_P1;SDS_P2;PMS_P1;PMS_P2;Temp;Humidity;BMP_temperature;BMP_pressure;BME280_temperature;BME280_humidity;BME280_pressure;Samples;Min_cycle;Max_cycle;Signal;HPM_P1;HPM_P2
2023/04/14 00:02:22;;;;;;;1.90;1.20;;;5.00;99.90;;;;;;4970432;28;20042;-65
2023/04/14 00:04:52;;;;;;;1.98;1.30;;;5.00;99.90;;;;;;4984722;28;20027;-65
2023/04/14 00:07:18;;;;;;;2.72;1.30;;;5.00;99.90;;;;;;4970842;28;20391;-65
2023/04/14 00:09:44;;;;;;;1.55;0.90;;;5.00;99.90;;;;;;4967547;28;20026;-65
2023/04/14 00:12:10;;;;;;;5.93;1.70;;;4.90;99.90;;;;;;4970409;28;20567;-65
2023/04/14 00:14:35;;;;;;;2.33;1.27;;;4.90;99.90;;;;;;4968206;28;20031;-65
2023/04/14 00:17:01;;;;;;;2.42;1.45;;;4.80;99.90;;;;;;4971790;28;20026;-65
2023/04/14 00:19:27;;;;;;;4.93;1.58;;;4.70;99.90;;;;;;4965948;28;20054;-65
2023/04/14 00:21:52;;;;;;;2.33;1.65;;;4.60;99.90;;;;;;4971632;28;20027;-65
2023/04/14 00:24:18;;;;;;;2.25;1.73;;;4.70;99.90;;;;;;4967155;28;20422;-65
2023/04/14 00:26:44;;;;;;;9.35;2.58;;;4.70;99.90;;;;;;4971870;28;20035;-65
2023/04/14 00:29:09;;;;;;;4.80;1.65;;;4.70;99.90;;;;;;4965909;28;20039;-65
2023/04/14 00:31:35;;;;;;;4.78;1.90;;;4.70;99.90;;;;;;4971891;28;20031;-65
2023/04/14 00:34:01;;;;;;;2.05;1.65;;;4.60;99.90;;;;;;4967532;28;20537;-65
2023/04/14 00:36:26;;;;;;;2.13;1.33;;;4.50;99.90;;;;;;4970503;28;20047;-65
2023/04/14 00:38:52;;;;;;;5.10;1.88;;;4.60;99.90;;;;;;4967261;28;20395;-65
2023/04/14 00:41:18;;;;;;;3.05;1.58;;;4.50;99.90;;;;;;4974597;28;20475;-65
2023/04/14 00:43:44;;;;;;;4.03;2.35;;;4.50;99.90;;;;;;4971200;28;20446;-65
2023/04/14 00:46:10;;;;;;;3.05;1.50;;;4.50;99.90;;;;;;4975855;28;20034;-65
2023/04/14 00:48:36;;;;;;;3.28;1.40;;;4.50;99.90;;;;;;4970022;28;20509;-65
2023/04/14 00:51:03;;;;;;;5.63;1.83;;;4.60;99.90;;;;;;4975343;28;20027;-65
2023/04/14 00:53:30;;;;;;;3.05;1.63;;;4.50;99.90;;;;;;4971349;28;20101;-65
2023/04/14 00:55:55;;;;;;;3.22;1.52;;;4.40;99.90;;;;;;4974314;28;20035;-65
2023/04/14 00:58:21;;;;;;;2.83;1.77;;;4.30;99.90;;;;;;4971199;28;20761;-65
2023/04/14 01:00:52;;;;;;;3.33;1.60;;;4.30;99.90;;;;;;4975248;28;20029;-65
2023/04/14 01:03:18;;;;;;;10.05;1.23;;;4.20;99.90;;;;;;4971187;28;20090;-65
2023/04/14 01:05:44;;;;;;;8.02;1.67;;;4.20;99.90;;;;;;4970030;28;20044;-65
2023/04/14 01:08:10;;;;;;;5.30;1.70;;;4.10;99.90;;;;;;4973341;28;20034;-65
2023/04/14 01:10:45;;;;;;;4.05;1.42;;;4.10;99.90;;;;;;4983048;28;20467;-65
2023/04/14 01:13:32;;;;;;;4.93;1.67;;;4.10;99.90;;;;;;4980983;28;20085;-66
2023/04/14 01:16:17;;;;;;;2.33;1.17;;;4.10;99.90;;;;;;4973771;28;20037;-65
2023/04/14 01:19:05;;;;;;;3.40;1.20;;;4.10;99.90;;;;;;4969269;28;20561;-65
2023/04/14 01:21:37;;;;;;;7.28;1.52;;;4.10;99.90;;;;;;4974879;28;20121;-65
2023/04/14 01:24:36;;;;;;;2.72;1.35;;;4.10;99.90;;;;;;4969312;28;20030;-65
2023/04/14 01:27:31;;;;;;;2.80;1.70;;;4.10;99.90;;;;;;4975064;28;20041;-65
2023/04/14 01:30:41;;;;;;;3.05;1.85;;;4.20;99.90;;;;;;4972199;28;20510;-65
2023/04/14 01:33:11;;;;;;;4.72;1.73;;;4.20;99.90;;;;;;4970860;28;20727;-66
2023/04/14 01:35:48;;;;;;;2.53;1.42;;;4.20;99.90;;;;;;4957856;28;20022;-66
2023/04/14 01:38:26;;;;;;;8.90;1.38;;;4.10;99.90;;;;;;4969006;28;20059;-66
2023/04/14 01:40:58;;;;;;;5.85;1.60;;;4.10;99.90;;;;;;4972853;28;20034;-66
2023/04/14 01:43:29;;;;;;;2.92;1.05;;;4.10;99.90;;;;;;4968993;28;20404;-66
2023/04/14 01:46:03;;;;;;;2.85;1.60;;;4.00;99.90;;;;;;4973412;28;20799;-66
2023/04/14 01:48:31;;;;;;;2.58;1.40;;;4.00;99.90;;;;;;4968856;28;20050;-66
2023/04/14 01:50:59;;;;;;;1.95;1.60;;;3.90;99.90;;;;;;4972468;28;20106;-66
2023/04/14 01:53:27;;;;;;;3.35;1.08;;;3.90;99.90;;;;;;4969983;28;20033;-66
2023/04/14 01:55:54;;;;;;;2.25;1.17;;;3.90;99.90;;;;;;4973386;28;20035;-65
2023/04/14 01:58:24;;;;;;;7.60;1.63;;;3.80;99.90;;;;;;4969642;28;20045;-66
2023/04/14 02:00:51;;;;;;;3.75;1.45;;;3.70;99.90;;;;;;4973080;28;20030;-66
2023/04/14 02:03:19;;;;;;;2.60;1.45;;;3.70;99.90;;;;;;4971688;28;20379;-66
2023/04/14 02:05:47;;;;;;;2.40;1.60;;;3.60;99.90;;;;;;4972979;28;20035;-66
2023/04/14 02:08:15;;;;;;;2.83;1.30;;;3.60;99.90;;;;;;4952130;28;20439;-66
2023/04/14 02:10:46;;;;;;;5.22;1.30;;;3.60;99.90;;;;;;4972519;28;20035;-66
2023/04/14 02:13:14;;;;;;;5.40;2.28;;;3.50;99.90;;;;;;4971768;28;20034;-66
2023/04/14 02:15:41;;;;;;;2.85;2.00;;;3.60;99.90;;;;;;4972832;28;20034;-66
2023/04/14 02:18:07;;;;;;;2.97;1.63;;;3.60;99.90;;;;;;4968441;28;20042;-66
2023/04/14 02:20:41;;;;;;;4.75;1.50;;;3.60;99.90;;;;;;4972555;28;20023;-66
2023/04/14 02:23:07;;;;;;;2.05;1.38;;;3.40;99.90;;;;;;4968709;28;20023;-66
2023/04/14 02:25:35;;;;;;;2.58;1.33;;;3.30;99.90;;;;;;4973971;28;20023;-66
2023/04/14 02:28:18;;;;;;;4.90;2.53;;;3.30;99.90;;;;;;4969411;28;20047;-65
2023/04/14 02:30:49;;;;;;;1.95;1.15;;;3.10;99.90;;;;;;4973522;28;20038;-66
2023/04/14 02:33:26;;;;;;;;;;;3.10;99.90;;;;;;4968506;28;20039;-65
2023/04/14 02:36:19;;;;;;;6.43;1.48;;;3.20;99.90;;;;;;4972384;28;19921;-66
2023/04/14 02:38:51;;;;;;;3.92;1.88;;;3.30;99.90;;;;;;4967435;28;20061;-66
2023/04/14 02:41:27;;;;;;;8.85;1.95;;;3.40;99.90;;;;;;4972127;28;20160;-65
2023/04/14 02:44:18;;;;;;;3.90;1.95;;;3.50;99.90;;;;;;4967798;28;20166;-65
2023/04/14 02:46:56;;;;;;;3.63;1.90;;;3.50;99.90;;;;;;4972264;28;20031;-65
2023/04/14 02:49:23;;;;;;;24.40;2.63;;;3.50;99.90;;;;;;4970751;28;20038;-65
2023/04/14 02:51:50;;;;;;;4.88;2.17;;;3.50;99.90;;;;;;4972495;28;20042;-65
2023/04/14 02:54:18;;;;;;;2.80;2.35;;;3.50;99.90;;;;;;4970805;28;20406;-66
2023/04/14 02:56:44;;;;;;;4.18;1.90;;;3.60;99.90;;;;;;4973339;28;20035;-65
2023/04/14 02:59:11;;;;;;;11.00;4.30;;;3.60;99.90;;;;;;4973595;28;20034;-66
2023/04/14 03:01:38;;;;;;;11.30;1.95;;;3.70;99.90;;;;;;4971944;28;20113;-65
2023/04/14 03:04:04;;;;;;;3.97;2.13;;;3.80;99.90;;;;;;4966476;28;20031;-65
2023/04/14 03:06:30;;;;;;;3.65;1.70;;;3.80;99.90;;;;;;4972120;28;20034;-66
2023/04/14 03:08:59;;;;;;;3.63;1.45;;;3.60;99.90;;;;;;4976723;23;20535;-67
2023/04/14 03:11:27;;;;;;;3.33;1.85;;;3.50;99.90;;;;;;4968260;28;20023;-67
2023/04/14 03:13:55;;;;;;;7.63;2.58;;;3.50;99.90;;;;;;4969239;28;20031;-68
2023/04/14 03:16:22;;;;;;;9.60;3.10;;;3.60;99.90;;;;;;4971761;28;20034;-67
2023/04/14 03:18:51;;;;;;;9.02;3.25;;;3.70;99.90;;;;;;4969185;28;20238;-67
2023/04/14 03:21:19;;;;;;;5.28;2.10;;;3.70;99.90;;;;;;4972659;28;20105;-67
2023/04/14 03:23:47;;;;;;;4.43;2.63;;;3.80;99.90;;;;;;4969258;28;20034;-67
2023/04/14 03:26:17;;;;;;;6.03;2.97;;;3.90;99.90;;;;;;4971693;28;20027;-67
2023/04/14 03:28:47;;;;;;;4.57;2.80;;;3.90;99.90;;;;;;4969121;28;20147;-67
2023/04/14 03:31:17;;;;;;;4.35;2.53;;;3.90;99.90;;;;;;4971386;28;20054;-67
2023/04/14 03:33:46;;;;;;;5.10;2.35;;;3.80;99.90;;;;;;4970213;28;20033;-67
2023/04/14 03:36:14;;;;;;;2.90;1.25;;;3.70;99.90;;;;;;4971187;28;20442;-67
2023/04/14 03:38:41;;;;;;;3.13;1.77;;;3.60;99.90;;;;;;4968922;28;20030;-67
2023/04/14 03:41:08;;;;;;;4.38;1.52;;;3.50;99.90;;;;;;4963173;28;20022;-67
2023/04/14 03:43:35;;;;;;;3.25;1.15;;;3.40;99.90;;;;;;4970306;28;20050;-67
2023/04/14 03:46:04;;;;;;;5.13;2.05;;;3.40;99.90;;;;;;4971064;28;20423;-67
2023/04/14 03:48:33;;;;;;;3.90;2.33;;;3.30;99.90;;;;;;4969946;28;20027;-67
2023/04/14 03:51:01;;;;;;;2.28;1.48;;;3.30;99.90;;;;;;4970731;28;20022;-67
2023/04/14 03:53:30;;;;;;;5.40;3.00;;;3.30;99.90;;;;;;4970761;28;20031;-67
2023/04/14 03:55:58;;;;;;;4.47;1.70;;;3.30;99.90;;;;;;4971202;28;20034;-67
2023/04/14 03:58:27;;;;;;;10.88;4.00;;;3.20;99.90;;;;;;4969943;28;20115;-67
2023/04/14 04:00:54;;;;;;;9.38;2.15;;;3.20;99.90;;;;;;4970971;28;20054;-67
2023/04/14 04:03:21;;;;;;;6.43;2.33;;;3.20;99.90;;;;;;4966919;28;20038;-67
2023/04/14 04:05:48;;;;;;;3.45;1.70;;;3.20;99.90;;;;;;4971053;28;20146;-67
2023/04/14 04:08:14;;;;;;;4.78;2.60;;;3.20;99.90;;;;;;4969905;28;20058;-67
2023/04/14 04:10:42;;;;;;;10.30;2.42;;;3.10;99.90;;;;;;4970503;28;20098;-67
2023/04/14 04:13:16;;;;;;;3.08;2.05;;;3.00;99.90;;;;;;4969766;28;20027;-67
2023/04/14 04:15:44;;;;;;;4.78;2.20;;;3.00;99.90;;;;;;4970622;28;20479;-67
2023/04/14 04:18:14;;;;;;;5.03;2.55;;;3.00;99.90;;;;;;4969879;28;20747;-67
2023/04/14 04:20:40;;;;;;;7.57;2.50;;;2.90;99.90;;;;;;4971539;28;20082;-67
2023/04/14 04:23:08;;;;;;;11.27;2.35;;;2.90;99.90;;;;;;4968471;28;20085;-67
2023/04/14 04:25:39;;;;;;;9.30;3.10;;;2.90;99.90;;;;;;4973688;28;20030;-68
2023/04/14 04:28:06;;;;;;;8.82;3.35;;;2.90;99.90;;;;;;4968127;28;20379;-67
2023/04/14 04:30:37;;;;;;;6.35;2.83;;;2.90;99.90;;;;;;4970258;28;20509;-67
2023/04/14 04:33:03;;;;;;;8.30;3.90;;;2.90;99.90;;;;;;4968458;28;20046;-67
2023/04/14 04:35:31;;;;;;;8.80;3.40;;;2.90;99.90;;;;;;4971796;28;20514;-67
2023/04/14 04:37:59;;;;;;;6.93;4.32;;;3.00;99.90;;;;;;4969212;28;20051;-66
2023/04/14 04:40:25;;;;;;;8.43;3.35;;;3.00;99.90;;;;;;4971395;28;20026;-66
2023/04/14 04:42:51;;;;;;;6.82;3.20;;;3.20;99.90;;;;;;4969564;28;20031;-67
2023/04/14 04:45:47;;;;;;;6.80;2.95;;;3.20;99.90;;;;;;4971581;28;20034;-66
2023/04/14 04:48:12;;;;;;;5.85;3.10;;;3.40;99.90;;;;;;4960875;28;20565;-66
2023/04/14 04:50:38;;;;;;;7.90;3.92;;;3.50;99.90;;;;;;4971304;28;20035;-66
2023/04/14 04:53:04;;;;;;;7.40;3.65;;;3.50;99.90;;;;;;4968324;28;20039;-66
2023/04/14 04:55:29;;;;;;;6.70;3.15;;;3.40;99.90;;;;;;4971424;28;20026;-65
2023/04/14 04:57:55;;;;;;;10.60;3.78;;;3.40;99.90;;;;;;4967810;28;20039;-67
2023/04/14 05:00:21;;;;;;;9.50;3.72;;;3.30;99.90;;;;;;4971211;28;20038;-67
2023/04/14 05:02:47;;;;;;;3.00;2.25;;;3.20;99.90;;;;;;4967024;28;20046;-67
2023/04/14 05:05:13;;;;;;;31.58;3.45;;;3.10;99.90;;;;;;4977338;28;20019;-67
2023/04/14 05:07:39;;;;;;;5.18;3.10;;;3.10;99.90;;;;;;4969083;28;20038;-67
2023/04/14 05:10:05;;;;;;;9.35;4.93;;;3.10;99.90;;;;;;4970878;28;20050;-67
2023/04/14 05:12:31;;;;;;;19.35;4.78;;;2.90;99.90;;;;;;4968150;28;20037;-71
2023/04/14 05:14:57;;;;;;;6.18;2.95;;;2.90;99.90;;;;;;4969732;28;20434;-67
2023/04/14 05:17:23;;;;;;;19.35;4.13;;;2.90;99.90;;;;;;4971160;28;20035;-67
2023/04/14 05:19:48;;;;;;;13.00;3.25;;;3.00;99.90;;;;;;4950524;28;20064;-67
2023/04/14 05:22:14;;;;;;;8.70;4.25;;;3.10;99.90;;;;;;4962249;28;20031;-67
2023/04/14 05:24:40;;;;;;;4.40;2.40;;;3.10;99.90;;;;;;4965129;28;20039;-69
2023/04/14 05:27:06;;;;;;;5.22;3.63;;;3.20;99.90;;;;;;4974005;28;20097;-68
2023/04/14 05:29:32;;;;;;;5.50;2.35;;;3.20;99.90;;;;;;4971968;28;20046;-68
2023/04/14 05:31:57;;;;;;;6.88;3.35;;;3.20;99.90;;;;;;4975388;28;20034;-68
2023/04/14 05:34:23;;;;;;;10.20;2.53;;;3.20;99.90;;;;;;4975666;28;20037;-69
2023/04/14 05:36:49;;;;;;;4.90;2.88;;;3.20;99.90;;;;;;4974775;28;20054;-67
2023/04/14 05:39:15;;;;;;;2.90;2.25;;;2.90;99.90;;;;;;4971909;28;20038;-67
2023/04/14 05:41:41;;;;;;;10.55;4.00;;;3.00;99.90;;;;;;4974695;28;20037;-69
2023/04/14 05:44:06;;;;;;;8.48;4.22;;;3.10;99.90;;;;;;4972428;28;20102;-68
2023/04/14 05:46:33;;;;;;;5.00;2.42;;;3.20;99.90;;;;;;4974353;28;20490;-67
2023/04/14 05:48:59;;;;;;;9.38;2.35;;;3.30;99.90;;;;;;4970838;28;20039;-68
2023/04/14 05:51:26;;;;;;;7.38;3.17;;;3.30;99.90;;;;;;4972961;28;20034;-69
2023/04/14 05:53:52;;;;;;;6.05;3.25;;;3.40;99.90;;;;;;4968469;28;20101;-68
2023/04/14 05:56:18;;;;;;;9.95;3.17;;;3.40;99.90;;;;;;4974177;28;20047;-63
2023/04/14 05:58:43;;;;;;;4.55;2.50;;;3.60;99.90;;;;;;4968670;28;20046;-66
2023/04/14 06:01:09;;;;;;;9.10;3.40;;;3.60;99.90;;;;;;4977310;28;20061;-69
2023/04/14 06:03:36;;;;;;;4.13;2.38;;;3.60;99.90;;;;;;4972900;28;20080;-67
2023/04/14 06:06:01;;;;;;;12.27;4.45;;;3.60;99.90;;;;;;4973516;28;20023;-67
2023/04/14 06:08:29;;;;;;;7.65;2.70;;;3.70;99.90;;;;;;4971686;28;20158;-68
2023/04/14 06:10:55;;;;;;;4.22;2.35;;;3.80;99.90;;;;;;4970575;28;20034;-70
2023/04/14 06:13:21;;;;;;;9.70;3.13;;;3.80;99.90;;;;;;4971509;28;20049;-67
2023/04/14 06:15:50;;;;;;;9.75;3.78;;;3.90;99.90;;;;;;4973933;28;20130;-65
2023/04/14 06:18:16;;;;;;;5.55;2.47;;;4.00;99.90;;;;;;4965692;28;20039;-67
2023/04/14 06:20:42;;;;;;;9.55;4.05;;;4.10;99.90;;;;;;4985395;28;20036;-67
2023/04/14 06:23:07;;;;;;;12.65;2.67;;;4.20;99.90;;;;;;4971502;28;20545;-67
2023/04/14 06:25:34;;;;;;;19.65;3.30;;;4.20;99.90;;;;;;4973430;28;20019;-67
2023/04/14 06:28:02;;;;;;;5.03;3.05;;;4.40;99.90;;;;;;4970575;28;20038;-67
2023/04/14 06:30:31;;;;;;;5.97;2.63;;;4.40;99.90;;;;;;4970051;28;20030;-67
2023/04/14 06:33:00;;;;;;;4.85;2.40;;;4.60;99.90;;;;;;4950873;28;20046;-67
2023/04/14 06:35:26;;;;;;;3.42;2.03;;;4.70;99.90;;;;;;4978164;28;20046;-67
2023/04/14 06:37:51;;;;;;;5.97;3.22;;;4.80;99.90;;;;;;4969660;28;20675;-67
2023/04/14 06:40:17;;;;;;;5.35;2.58;;;4.80;99.90;;;;;;4973014;28;20386;-67
2023/04/14 06:42:43;;;;;;;5.28;2.40;;;4.90;99.90;;;;;;4970982;28;20125;-66
2023/04/14 06:45:09;;;;;;;2.53;1.77;;;4.90;99.90;;;;;;4973330;28;20058;-67
2023/04/14 06:47:35;;;;;;;5.28;2.40;;;5.00;99.90;;;;;;4970484;28;20031;-67
2023/04/14 06:50:01;;;;;;;11.82;3.15;;;5.00;99.90;;;;;;4959129;28;20047;-67
2023/04/14 06:52:27;;;;;;;8.95;2.38;;;5.10;99.90;;;;;;4967664;28;20527;-66
2023/04/14 06:54:53;;;;;;;15.90;2.22;;;5.20;99.90;;;;;;4971390;28;20042;-66
2023/04/14 06:57:19;;;;;;;4.15;2.47;;;5.20;99.90;;;;;;4973204;28;20402;-65
2023/04/14 06:59:45;;;;;;;5.60;2.30;;;5.30;99.90;;;;;;4970095;28;20053;-66
2023/04/14 07:02:11;;;;;;;5.55;2.78;;;5.30;99.90;;;;;;4975034;28;20358;-66
2023/04/14 07:04:36;;;;;;;2.63;1.58;;;5.40;99.90;;;;;;4972013;28;20118;-66
2023/04/14 07:07:02;;;;;;;6.72;3.30;;;5.50;99.90;;;;;;4972583;28;20384;-66
2023/04/14 07:09:28;;;;;;;6.90;2.50;;;5.60;99.90;;;;;;4969120;28;20499;-65
2023/04/14 07:11:56;;;;;;;3.58;2.17;;;5.70;99.90;;;;;;4972486;28;20031;-66
2023/04/14 07:14:23;;;;;;;6.68;2.80;;;5.80;99.90;;;;;;4969362;28;20035;-65
2023/04/14 07:16:50;;;;;;;4.03;2.53;;;5.90;99.90;;;;;;4971284;28;20085;-65
2023/04/14 07:19:16;;;;;;;6.10;2.67;;;6.00;99.90;;;;;;4969621;28;20166;-65
2023/04/14 07:21:46;;;;;;;8.30;3.20;;;6.20;99.90;;;;;;4972751;28;20033;-65
2023/04/14 07:24:13;;;;;;;7.75;3.83;;;6.20;99.90;;;;;;4970220;28;20027;-65
2023/04/14 07:26:39;;;;;;;6.25;2.95;;;6.20;99.90;;;;;;4971275;28;20034;-65
2023/04/14 07:29:05;;;;;;;6.55;2.35;;;6.30;99.90;;;;;;4968056;28;20487;-65
2023/04/14 07:31:32;;;;;;;11.43;3.38;;;6.30;99.90;;;;;;4967738;28;20105;-65
2023/04/14 07:33:58;;;;;;;8.90;3.65;;;6.40;99.90;;;;;;4973771;28;20034;-65
2023/04/14 07:36:24;;;;;;;13.25;3.65;;;6.50;99.90;;;;;;4960380;28;20093;-65
2023/04/14 07:38:50;;;;;;;4.55;2.78;;;6.70;99.90;;;;;;4969577;28;20034;-65
2023/04/14 07:41:17;;;;;;;7.47;3.42;;;6.60;99.90;;;;;;4965599;28;20026;-65
2023/04/14 07:43:43;;;;;;;5.45;2.90;;;6.70;99.90;;;;;;4955789;28;20478;-65
2023/04/14 07:46:08;;;;;;;6.28;3.25;;;6.80;99.90;;;;;;4957958;28;20039;-65
2023/04/14 07:48:36;;;;;;;9.48;3.35;;;6.80;99.90;;;;;;4967237;28;20391;-64
2023/04/14 07:51:04;;;;;;;7.65;3.20;;;6.90;99.90;;;;;;4971860;28;20122;-67
2023/04/14 07:53:31;;;;;;;7.05;3.30;;;6.90;99.90;;;;;;4963291;28;20034;-65
2023/04/14 07:55:58;;;;;;;9.32;4.20;;;7.10;99.90;;;;;;4985188;28;20504;-65
2023/04/14 07:58:24;;;;;;;16.05;7.60;;;7.30;99.90;;;;;;4977677;28;20595;-64
2023/04/14 08:00:50;;;;;;;9.88;5.40;;;7.30;99.90;;;;;;4963227;28;20050;-66
2023/04/14 08:03:16;;;;;;;9.88;4.70;;;7.40;99.90;;;;;;4970418;28;20069;-65
2023/04/14 08:05:42;;;;;;;11.32;3.15;;;7.40;99.90;;;;;;4971516;28;20525;-65
2023/04/14 08:08:09;;;;;;;11.27;3.75;;;7.50;99.90;;;;;;4967256;28;20066;-66
2023/04/14 08:10:36;;;;;;;11.88;3.75;;;7.60;99.90;;;;;;4971386;28;20027;-66
2023/04/14 08:13:02;;;;;;;8.30;3.50;;;7.60;99.90;;;;;;4969683;28;20042;-65
2023/04/14 08:15:28;;;;;;;5.50;2.90;;;7.70;99.90;;;;;;4971873;28;20475;-66
2023/04/14 08:17:53;;;;;;;14.73;4.63;;;7.70;99.90;;;;;;4968617;28;20043;-65
2023/04/14 08:20:19;;;;;;;9.50;3.60;;;7.90;99.90;;;;;;4971426;28;20027;-65
2023/04/14 08:22:45;;;;;;;15.25;7.70;;;8.00;99.90;;;;;;4968840;28;20043;-66
2023/04/14 08:25:11;;;;;;;6.93;2.80;;;8.10;99.90;;;;;;4971586;28;20135;-65
2023/04/14 08:27:37;;;;;;;11.20;4.40;;;8.10;99.90;;;;;;4969262;28;20034;-66
2023/04/14 08:30:04;;;;;;;6.65;3.10;;;8.20;99.90;;;;;;4985778;28;20056;-66
2023/04/14 08:32:30;;;;;;;4.72;2.25;;;8.20;99.90;;;;;;4973254;28;20029;-66
2023/04/14 08:34:56;;;;;;;15.75;3.08;;;8.20;99.90;;;;;;4969792;28;20118;-66
2023/04/14 08:37:22;;;;;;;4.97;2.65;;;8.40;99.90;;;;;;4971022;28;20082;-66
2023/04/14 08:39:48;;;;;;;11.18;3.28;;;8.50;99.90;;;;;;4968675;28;20042;-66
2023/04/14 08:42:16;;;;;;;13.45;3.42;;;8.70;99.90;;;;;;4971882;28;20030;-71
2023/04/14 08:44:41;;;;;;;9.18;3.13;;;8.70;99.90;;;;;;4967850;28;20122;-66
2023/04/14 08:47:08;;;;;;;8.10;3.65;;;8.80;99.90;;;;;;4951148;28;20543;-67
2023/04/14 08:50:00;;;;;;;10.65;2.95;;;9.00;99.90;;;;;;4950748;28;20031;-66
2023/04/14 08:52:27;;;;;;;14.05;4.25;;;9.00;99.90;;;;;;4952550;28;20035;-65
2023/04/14 08:54:55;;;;;;;7.55;3.40;;;9.20;99.90;;;;;;4984149;28;20042;-65
2023/04/14 08:57:23;;;;;;;8.55;2.78;;;9.50;99.90;;;;;;4968586;28;20035;-66
2023/04/14 08:59:50;;;;;;;7.20;3.05;;;9.50;99.90;;;;;;4968583;28;20043;-65
2023/04/14 09:02:17;;;;;;;7.10;3.42;;;9.50;99.90;;;;;;4971461;28;20124;-63
2023/04/14 09:04:44;;;;;;;11.82;2.72;;;9.60;99.90;;;;;;4967937;28;20023;-65
2023/04/14 09:07:11;;;;;;;15.88;3.28;;;9.50;99.90;;;;;;4966735;28;20030;-65
2023/04/14 09:09:37;;;;;;;12.15;3.10;;;9.60;99.90;;;;;;4974138;23;20043;-69
2023/04/14 09:12:03;;;;;;;7.63;2.78;;;9.90;99.90;;;;;;4960827;28;20110;-67
2023/04/14 09:14:29;;;;;;;7.50;3.47;;;10.00;99.90;;;;;;4960335;28;20039;-75
2023/04/14 09:16:56;;;;;;;5.85;3.20;;;10.10;99.90;;;;;;4963138;28;20023;-68
2023/04/14 09:19:26;;;;;;;6.00;2.83;;;10.10;99.90;;;;;;4957917;28;20090;-68
2023/04/14 09:21:51;;;;;;;3.95;2.25;;;10.10;99.90;;;;;;4954191;28;20352;-68
2023/04/14 09:24:22;;;;;;;8.07;4.00;;;10.40;99.90;;;;;;4923728;29;20038;-68
2023/04/14 09:26:51;;;;;;;8.70;2.40;;;10.30;99.90;;;;;;4953403;29;20390;-68
2023/04/14 09:29:17;;;;;;;10.18;3.42;;;10.50;99.90;;;;;;4948384;29;20086;-68
2023/04/14 09:31:47;;;;;;;6.97;3.25;;;10.60;99.90;;;;;;4945847;29;20035;-71
2023/04/14 09:34:18;;;;;;;6.55;2.60;;;10.60;99.90;;;;;;4954954;28;20023;-68
2023/04/14 09:37:03;;;;;;;;;;;10.80;99.90;;;;;;4937027;29;20123;-68
2023/04/14 09:39:30;;;;;;;7.68;2.28;;;11.00;99.90;;;;;;4949036;29;19918;-69
2023/04/14 09:41:56;;;;;;;8.07;3.25;;;11.10;99.90;;;;;;4953281;28;20384;-69
2023/04/14 09:44:21;;;;;;;10.07;2.50;;;11.30;99.90;;;;;;4947612;28;20038;-68
2023/04/14 09:47:05;;;;;;;9.43;2.72;;;11.40;99.90;;;;;;4953455;28;20113;-68
2023/04/14 09:49:31;;;;;;;11.65;2.75;;;11.40;99.90;;;;;;4948393;28;20512;-68
2023/04/14 09:52:07;;;;;;;4.38;1.80;;;11.60;99.90;;;;;;4952412;28;20530;-69
2023/04/14 09:54:34;;;;;;;6.20;1.90;;;11.90;99.90;;;;;;4948890;29;20042;-68
2023/04/14 09:57:01;;;;;;;8.38;2.90;;;12.30;99.90;;;;;;4953017;29;20042;-69
2023/04/14 09:59:35;;;;;;;4.40;2.15;;;12.40;99.90;;;;;;4949453;28;20086;-69
2023/04/14 10:02:08;;;;;;;6.25;2.58;;;12.70;99.90;;;;;;4954338;28;20458;-68
2023/04/14 10:04:34;;;;;;;7.40;1.52;;;12.50;99.90;;;;;;4956331;28;20114;-69
2023/04/14 10:07:00;;;;;;;7.20;2.55;;;12.80;99.90;;;;;;4952619;28;20098;-69
2023/04/14 10:09:33;;;;;;;3.38;1.77;;;12.50;99.90;;;;;;4949601;29;20483;-69
2023/04/14 10:12:13;;;;;;;10.32;2.10;;;12.50;99.90;;;;;;4953118;28;20113;-69
2023/04/14 10:14:40;;;;;;;4.38;1.77;;;12.50;99.90;;;;;;4950120;28;20110;-69
2023/04/14 10:17:07;;;;;;;5.05;2.33;;;12.90;99.90;;;;;;4952258;28;20379;-69
2023/04/14 10:19:35;;;;;;;7.00;2.35;;;13.00;99.90;;;;;;4932286;29;20497;-69
2023/04/14 10:22:01;;;;;;;10.52;3.03;;;12.80;99.90;;;;;;4953794;28;20041;-69
2023/04/14 10:24:27;;;;;;;8.40;2.42;;;13.00;99.90;;;;;;4950658;28;20360;-69
2023/04/14 10:26:54;;;;;;;9.20;2.78;;;13.20;99.90;;;;;;4951969;28;20039;-69
2023/04/14 10:29:21;;;;;;;6.65;1.75;;;13.50;99.90;;;;;;4948756;28;20056;-69
2023/04/14 10:32:04;;;;;;;8.00;1.73;;;13.30;99.90;;;;;;4936135;29;20059;-68
2023/04/14 10:34:32;;;;;;;5.40;2.30;;;13.40;99.90;;;;;;4939617;29;20106;-69
2023/04/14 10:37:17;;;;;;;7.80;2.03;;;13.60;99.90;;;;;;4935649;29;20488;-69
2023/04/14 10:39:50;;;;;;;7.05;1.83;;;13.70;99.90;;;;;;4948618;28;20027;-69
2023/04/14 10:42:15;;;;;;;3.22;1.88;;;13.60;99.90;;;;;;4952365;28;20079;-69
2023/04/14 10:44:41;;;;;;;5.72;1.45;;;13.80;99.40;;;;;;4948915;29;20420;-69
2023/04/14 10:47:07;;;;;;;5.15;1.50;;;14.00;98.70;;;;;;4952534;29;20582;-69
2023/04/14 10:49:34;;;;;;;4.50;1.08;;;13.80;97.50;;;;;;4947692;29;20042;-69
2023/04/14 10:52:24;;;;;;;5.30;1.75;;;13.70;97.60;;;;;;4952121;29;20038;-69
2023/04/14 10:55:06;;;;;;;4.40;1.52;;;14.20;96.10;;;;;;4935915;28;20051;-69
2023/04/14 10:57:40;;;;;;;5.55;1.63;;;14.60;95.40;;;;;;4947410;29;20039;-69
2023/04/14 11:00:27;;;;;;;6.22;1.77;;;14.80;94.60;;;;;;4931862;29;20184;-68
2023/04/14 11:02:57;;;;;;;8.05;1.15;;;14.40;94.30;;;;;;4958759;28;20114;-69
2023/04/14 11:05:23;;;;;;;3.83;1.83;;;14.20;95.50;;;;;;4950268;28;20036;-69
2023/04/14 11:07:57;;;;;;;5.93;1.02;;;14.80;93.80;;;;;;4952893;28;20035;-69
2023/04/14 11:10:23;;;;;;;2.88;1.55;;;14.90;95.10;;;;;;4948012;28;20543;-69
2023/04/14 11:12:58;;;;;;;6.75;1.90;;;14.80;96.40;;;;;;4953040;28;20161;-69
2023/04/14 11:16:04;;;;;;;3.40;1.52;;;15.20;94.60;;;;;;4947157;29;20036;-66
2023/04/14 11:18:41;;;;;;;5.07;1.50;;;15.60;92.50;;;;;;4932442;29;20091;-70
2023/04/14 11:21:13;;;;;;;6.60;1.58;;;15.60;93.20;;;;;;4973938;28;20455;-69
2023/04/14 11:23:40;;;;;;;4.22;1.45;;;15.60;93.20;;;;;;4948039;28;20028;-70
2023/04/14 11:26:10;;;;;;;8.80;2.03;;;15.60;90.50;;;;;;4952053;29;20430;-69
2023/04/14 11:28:45;;;;;;;2.83;1.17;;;15.50;91.70;;;;;;4947991;28;20062;-69
2023/04/14 11:31:14;;;;;;;3.38;1.25;;;15.30;92.30;;;;;;4943541;29;20074;-69
2023/04/14 11:33:40;;;;;;;5.97;1.58;;;15.90;90.70;;;;;;4957237;28;20087;-69
2023/04/14 11:36:11;;;;;;;2.58;1.20;;;15.70;89.80;;;;;;4952334;29;20447;-69
2023/04/14 11:38:40;;;;;;;4.57;1.40;;;16.20;87.00;;;;;;4949403;29;20031;-68
2023/04/14 11:41:07;;;;;;;5.85;1.27;;;16.20;85.50;;;;;;4950597;28;20039;-69
2023/04/14 11:43:33;;;;;;;5.57;1.48;;;16.20;82.60;;;;;;4949190;28;20023;-69
2023/04/14 11:45:59;;;;;;;5.40;1.60;;;15.90;82.20;;;;;;4965884;28;20031;-69
2023/04/14 11:48:28;;;;;;;5.38;1.27;;;15.60;82.80;;;;;;4949275;28;20035;-69
2023/04/14 11:50:55;;;;;;;4.10;1.35;;;15.70;85.30;;;;;;4964721;28;20145;-69
2023/04/14 11:53:20;;;;;;;5.35;1.20;;;16.50;85.80;;;;;;4949985;28;20565;-66
2023/04/14 11:55:51;;;;;;;5.35;1.67;;;16.50;80.90;;;;;;4966217;28;20587;-69
2023/04/14 11:58:23;;;;;;;1.40;0.98;;;16.50;78.30;;;;;;4951218;28;20495;-69
2023/04/14 12:00:49;;;;;;;3.80;1.30;;;16.80;81.70;;;;;;4947832;28;20031;-69
2023/04/14 12:03:16;;;;;;;3.80;1.33;;;16.60;76.80;;;;;;4951896;28;20102;-69
2023/04/14 12:05:41;;;;;;;10.18;1.40;;;16.80;75.90;;;;;;4962851;28;20503;-69
2023/04/14 12:08:09;;;;;;;2.33;0.90;;;16.90;76.40;;;;;;4931191;29;20153;-67
2023/04/14 12:10:36;;;;;;;3.28;1.48;;;17.10;74.40;;;;;;4947809;29;20067;-69
2023/04/14 12:13:07;;;;;;;3.75;1.35;;;17.30;72.50;;;;;;4951792;28;20118;-68
2023/04/14 12:15:39;;;;;;;6.18;1.55;;;16.80;72.50;;;;;;4946946;29;20048;-66
2023/04/14 12:18:14;;;;;;;4.82;0.90;;;17.50;72.40;;;;;;4923488;29;20090;-68
2023/04/14 12:20:55;;;;;;;3.08;1.30;;;17.50;71.60;;;;;;4950843;28;20090;-72
2023/04/14 12:23:21;;;;;;;1.05;0.88;;;17.60;70.50;;;;;;4945085;28;20089;-69
2023/04/14 12:25:50;;;;;;;8.63;1.45;;;18.20;67.80;;;;;;4952264;28;20507;-69
2023/04/14 12:28:26;;;;;;;4.75;1.65;;;17.70;66.50;;;;;;4951804;29;20039;-68
2023/04/14 12:30:58;;;;;;;3.55;1.30;;;17.70;65.00;;;;;;4950040;28;20031;-70
2023/04/14 12:33:27;;;;;;;5.85;1.23;;;17.50;67.40;;;;;;4952618;28;20042;-66
2023/04/14 12:36:01;;;;;;;5.72;1.80;;;17.10;70.00;;;;;;4950346;28;20031;-68
2023/04/14 12:38:28;;;;;;;4.53;1.17;;;17.70;69.30;;;;;;4946900;29;20031;-68
2023/04/14 12:40:55;;;;;;;3.00;1.00;;;17.90;67.60;;;;;;4950902;28;20035;-68
2023/04/14 12:43:36;;;;;;;1.70;0.75;;;17.40;66.50;;;;;;4946091;29;20031;-67
2023/04/14 12:46:04;;;;;;;8.82;1.73;;;17.80;65.80;;;;;;4948258;28;20106;-68
2023/04/14 12:48:45;;;;;;;4.07;1.17;;;18.70;64.80;;;;;;4947006;29;20027;-68
2023/04/14 12:51:13;;;;;;;1.83;0.85;;;18.30;65.30;;;;;;4933148;29;20035;-67
2023/04/14 12:53:40;;;;;;;3.22;1.00;;;19.10;63.70;;;;;;4948275;29;20035;-67
2023/04/14 12:56:26;;;;;;;2.75;1.00;;;17.90;65.20;;;;;;4948475;28;20102;-68
2023/04/14 12:58:52;;;;;;;7.22;1.10;;;17.70;65.00;;;;;;4949543;29;20078;-67
2023/04/14 13:01:19;;;;;;;5.05;0.98;;;18.50;64.40;;;;;;4946904;29;20107;-67
2023/04/14 13:03:49;;;;;;;2.47;0.82;;;19.00;66.80;;;;;;4954781;28;20031;-67